sensor_id;sensor_type;location;lat;lon;timestamp;P1;durP1;ratioP1;P2;durP2;ratioP2
50689;SDS011;54375;48.298;11.238;2023-04-03T00:08:19;13.20;;;7.32;;
50689;SDS011;54375;48.298;11.238;2023-04-03T00:23:23;10.20;;;5.72;;
50689;SDS011;54375;48.298;11.238;2023-04-03T00:38:26;7.25;;;4.32;;
50689;SDS011;54375;48.298;11.238;2023-04-03T00:53:29;7.45;;;3.67;;
50689;SDS011;54375;48.298;11.238;2023-04-03T01:08:36;5.72;;;3.65;;
50689;SDS011;54375;48.298;11.238;2023-04-03T01:23:52;6.93;;;3.97;;
50689;SDS011;54375;48.298;11.238;2023-04-03T01:39:01;7.80;;;3.70;;
50689;SDS011;54375;48.298;11.238;2023-04-03T01:54:03;7.05;;;4.30;;
50689;SDS011;54375;48.298;11.238;2023-04-03T02:09:06;7.38;;;4.13;;
50689;SDS011;54375;48.298;11.238;2023-04-03T02:24:09;7.22;;;4.10;;
50689;SDS011;54375;48.298;11.238;2023-04-03T02:39:14;8.10;;;4.18;;
50689;SDS011;54375;48.298;11.238;2023-04-03T02:54:16;8.05;;;4.15;;
50689;SDS011;54375;48.298;11.238;2023-04-03T03:09:18;6.93;;;4.03;;
50689;SDS011;54375;48.298;11.238;2023-04-03T03:24:20;6.75;;;4.00;;
50689;SDS011;54375;48.298;11.238;2023-04-03T03:39:23;11.90;;;5.00;;
50689;SDS011;54375;48.298;11.238;2023-04-03T03:54:25;7.35;;;4.45;;
50689;SDS011;54375;48.298;11.238;2023-04-03T04:09:27;8.50;;;4.50;;
50689;SDS011;54375;48.298;11.238;2023-04-03T04:24:30;6.35;;;4.40;;
50689;SDS011;54375;48.298;11.238;2023-04-03T04:39:33;9.48;;;4.78;;
50689;SDS011;54375;48.298;11.238;2023-04-03T04:54:35;8.75;;;4.97;;
50689;SDS011;54375;48.298;11.238;2023-04-03T05:09:38;7.53;;;4.85;;
50689;SDS011;54375;48.298;11.238;2023-04-03T05:24:40;8.57;;;5.75;;
50689;SDS011;54375;48.298;11.238;2023-04-03T05:39:43;11.40;;;5.10;;
50689;SDS011;54375;48.298;11.238;2023-04-03T05:54:45;9.15;;;5.20;;
50689;SDS011;54375;48.298;11.238;2023-04-03T06:09:47;8.43;;;5.05;;
50689;SDS011;54375;48.298;11.238;2023-04-03T06:24:50;12.38;;;6.00;;
50689;SDS011;54375;48.298;11.238;2023-04-03T06:39:52;12.63;;;7.30;;
50689;SDS011;54375;48.298;11.238;2023-04-03T06:54:54;9.02;;;5.60;;
50689;SDS011;54375;48.298;11.238;2023-04-03T07:09:57;10.55;;;5.95;;
50689;SDS011;54375;48.298;11.238;2023-04-03T07:24:59;13.07;;;7.07;;
50689;SDS011;54375;48.298;11.238;2023-04-03T07:40:02;13.90;;;7.32;;
50689;SDS011;54375;48.298;11.238;2023-04-03T07:55:05;10.88;;;6.72;;
50689;SDS011;54375;48.298;11.238;2023-04-03T08:10:08;11.20;;;6.80;;
50689;SDS011;54375;48.298;11.238;2023-04-03T08:25:10;8.30;;;6.35;;
50689;SDS011;54375;48.298;11.238;2023-04-03T08:40:14;10.70;;;5.93;;
50689;SDS011;54375;48.298;11.238;2023-04-03T08:55:22;11.13;;;7.05;;
50689;SDS011;54375;48.298;11.238;2023-04-03T09:10:26;8.55;;;5.65;;
50689;SDS011;54375;48.298;11.238;2023-04-03T09:25:31;9.57;;;6.05;;
50689;SDS011;54375;48.298;11.238;2023-04-03T09:40:35;8.52;;;5.47;;
50689;SDS011;54375;48.298;11.238;2023-04-03T09:55:42;8.30;;;5.00;;
50689;SDS011;54375;48.298;11.238;2023-04-03T10:10:46;8.30;;;5.30;;
50689;SDS011;54375;48.298;11.238;2023-04-03T10:25:53;10.05;;;6.22;;
50689;SDS011;54375;48.298;11.238;2023-04-03T10:41:04;8.23;;;5.22;;
50689;SDS011;54375;48.298;11.238;2023-04-03T10:56:14;10.45;;;5.05;;
50689;SDS011;54375;48.298;11.238;2023-04-03T11:11:22;10.02;;;5.57;;
50689;SDS011;54375;48.298;11.238;2023-04-03T11:26:29;5.70;;;3.83;;
50689;SDS011;54375;48.298;11.238;2023-04-03T11:41:36;8.60;;;4.00;;
50689;SDS011;54375;48.298;11.238;2023-04-03T11:56:39;6.85;;;3.50;;
50689;SDS011;54375;48.298;11.238;2023-04-03T12:11:42;7.80;;;3.80;;
50689;SDS011;54375;48.298;11.238;2023-04-03T12:26:46;10.35;;;5.28;;
50689;SDS011;54375;48.298;11.238;2023-04-03T12:41:52;8.52;;;4.00;;
50689;SDS011;54375;48.298;11.238;2023-04-03T12:57:13;6.85;;;4.18;;
50689;SDS011;54375;48.298;11.238;2023-04-03T13:12:20;6.53;;;3.03;;
50689;SDS011;54375;48.298;11.238;2023-04-03T13:27:22;5.70;;;2.60;;
50689;SDS011;54375;48.298;11.238;2023-04-03T13:42:25;5.90;;;2.70;;
50689;SDS011;54375;48.298;11.238;2023-04-03T13:57:29;4.30;;;2.45;;
50689;SDS011;54375;48.298;11.238;2023-04-03T14:12:33;4.60;;;2.47;;
50689;SDS011;54375;48.298;11.238;2023-04-03T14:27:37;5.72;;;2.50;;
50689;SDS011;54375;48.298;11.238;2023-04-03T14:42:41;5.25;;;2.30;;
50689;SDS011;54375;48.298;11.238;2023-04-03T14:57:43;3.70;;;1.73;;
50689;SDS011;54375;48.298;11.238;2023-04-03T15:12:46;3.95;;;2.00;;
50689;SDS011;54375;48.298;11.238;2023-04-03T15:27:48;3.00;;;1.52;;
50689;SDS011;54375;48.298;11.238;2023-04-03T15:42:51;6.03;;;1.77;;
50689;SDS011;54375;48.298;11.238;2023-04-03T15:57:54;5.80;;;2.60;;
50689;SDS011;54375;48.298;11.238;2023-04-03T16:12:56;4.57;;;2.75;;
50689;SDS011;54375;48.298;11.238;2023-04-03T16:27:59;5.68;;;2.95;;
50689;SDS011;54375;48.298;11.238;2023-04-03T16:43:01;5.28;;;2.80;;
50689;SDS011;54375;48.298;11.238;2023-04-03T16:58:03;4.93;;;2.30;;
50689;SDS011;54375;48.298;11.238;2023-04-03T17:13:05;4.50;;;2.22;;
50689;SDS011;54375;48.298;11.238;2023-04-03T17:28:08;4.45;;;2.17;;
50689;SDS011;54375;48.298;11.238;2023-04-03T17:43:10;4.50;;;2.65;;
50689;SDS011;54375;48.298;11.238;2023-04-03T17:58:12;5.57;;;2.33;;
50689;SDS011;54375;48.298;11.238;2023-04-03T18:13:16;4.82;;;2.25;;
50689;SDS011;54375;48.298;11.238;2023-04-03T18:28:18;6.55;;;2.70;;
50689;SDS011;54375;48.298;11.238;2023-04-03T18:43:20;5.15;;;2.75;;
50689;SDS011;54375;48.298;11.238;2023-04-03T18:58:23;5.22;;;2.30;;
50689;SDS011;54375;48.298;11.238;2023-04-03T19:13:25;4.50;;;2.40;;
50689;SDS011;54375;48.298;11.238;2023-04-03T19:28:28;5.10;;;2.60;;
50689;SDS011;54375;48.298;11.238;2023-04-03T19:43:30;5.53;;;2.83;;
50689;SDS011;54375;48.298;11.238;2023-04-03T19:58:33;10.07;;;3.10;;
50689;SDS011;54375;48.298;11.238;2023-04-03T20:13:35;6.60;;;3.78;;
50689;SDS011;54375;48.298;11.238;2023-04-03T20:28:38;5.35;;;2.90;;
50689;SDS011;54375;48.298;11.238;2023-04-03T20:43:40;6.60;;;3.08;;
50689;SDS011;54375;48.298;11.238;2023-04-03T20:58:42;9.00;;;3.90;;
50689;SDS011;54375;48.298;11.238;2023-04-03T21:29:23;5.95;;;3.28;;
50689;SDS011;54375;48.298;11.238;2023-04-03T21:44:25;6.50;;;3.22;;
50689;SDS011;54375;48.298;11.238;2023-04-03T21:59:28;5.53;;;2.95;;
50689;SDS011;54375;48.298;11.238;2023-04-03T22:14:30;6.28;;;3.78;;
50689;SDS011;54375;48.298;11.238;2023-04-03T22:29:32;5.88;;;3.45;;
50689;SDS011;54375;48.298;11.238;2023-04-03T22:44:35;6.50;;;3.30;;
50689;SDS011;54375;48.298;11.238;2023-04-03T22:59:37;6.10;;;3.25;;
50689;SDS011;54375;48.298;11.238;2023-04-03T23:14:39;6.35;;;3.03;;
50689;SDS011;54375;48.298;11.238;2023-04-03T23:29:42;6.43;;;3.42;;
50689;SDS011;54375;48.298;11.238;2023-04-03T23:44:44;6.10;;;3.70;;
50689;SDS011;54375;48.298;11.238;2023-04-03T23:59:46;5.95;;;3.28;;
